createdAt,value
2019-01-24T00:00:25.241Z,99.99
2019-01-24T00:01:35.306Z,99.99
2019-01-24T00:02:45.360Z,99.99
2019-01-24T00:03:55.426Z,99.99
2019-01-24T00:05:05.642Z,99.99
2019-01-24T00:06:15.418Z,99.99
2019-01-24T00:07:25.457Z,99.99
2019-01-24T00:08:35.558Z,99.99
2019-01-24T00:09:45.605Z,99.99
2019-01-24T00:10:55.730Z,99.99
2019-01-24T00:12:07.085Z,99.99
2019-01-24T00:13:17.191Z,99.99
2019-01-24T00:14:27.263Z,99.99
2019-01-24T00:15:37.336Z,99.99
2019-01-24T00:16:47.419Z,99.99
2019-01-24T00:17:57.473Z,99.99
2019-01-24T00:19:07.522Z,99.99
2019-01-24T00:20:17.056Z,99.99
2019-01-24T00:21:27.144Z,99.99
2019-01-24T00:22:37.245Z,99.99
2019-01-24T00:23:47.050Z,99.99
2019-01-24T00:24:57.106Z,99.99
2019-01-24T00:26:07.549Z,99.99
2019-01-24T00:27:17.615Z,99.99
2019-01-24T00:28:27.647Z,99.99
2019-01-24T00:29:37.703Z,99.99
2019-01-24T00:30:47.496Z,99.99
2019-01-24T00:31:57.032Z,99.99
2019-01-24T00:33:08.870Z,99.99
2019-01-24T00:34:23.097Z,99.99
2019-01-24T00:35:33.242Z,99.99
2019-01-24T00:36:43.030Z,99.99
2019-01-24T00:37:53.068Z,99.99
2019-01-24T00:39:05.662Z,99.99
2019-01-24T00:40:15.453Z,99.99
2019-01-24T00:41:25.490Z,99.99
2019-01-24T00:42:35.537Z,99.99
2019-01-24T00:43:45.582Z,99.99
2019-01-24T00:44:55.635Z,99.99
2019-01-24T00:46:06.635Z,99.99
2019-01-24T00:47:16.659Z,99.99
2019-01-24T00:48:26.191Z,99.99
2019-01-24T00:49:36.273Z,99.99
2019-01-24T00:50:46.310Z,99.99
2019-01-24T00:51:56.125Z,99.99
2019-01-24T00:53:06.022Z,99.99
2019-01-24T00:54:15.812Z,99.99
2019-01-24T00:55:25.856Z,99.99
2019-01-24T00:56:35.628Z,99.99
2019-01-24T00:57:45.824Z,99.99
2019-01-24T00:58:55.854Z,99.99
2019-01-24T01:00:06.178Z,99.99
2019-01-24T01:01:16.578Z,99.99
2019-01-24T01:02:26.375Z,99.99
2019-01-24T01:03:36.487Z,99.99
2019-01-24T01:04:46.279Z,99.99
2019-01-24T01:05:56.074Z,99.99
2019-01-24T01:07:06.133Z,99.99
2019-01-24T01:08:15.923Z,99.99
2019-01-24T01:09:25.991Z,99.99
2019-01-24T01:10:36.045Z,99.99
2019-01-24T01:11:46.083Z,99.99
2019-01-24T01:12:56.128Z,99.99
2019-01-24T01:14:06.166Z,99.99
2019-01-24T01:15:15.947Z,99.99
2019-01-24T01:16:25.738Z,99.99
2019-01-24T01:17:35.778Z,99.99
2019-01-24T01:18:45.571Z,99.99
2019-01-24T01:19:55.616Z,99.99
2019-01-24T01:21:06.684Z,99.99
2019-01-24T01:22:16.719Z,99.99
2019-01-24T01:23:27.940Z,99.99
2019-01-24T01:24:37.970Z,99.99
2019-01-24T01:25:48.010Z,99.99
2019-01-24T01:26:58.098Z,99.99
2019-01-24T01:28:08.723Z,99.99
2019-01-24T01:29:18.775Z,99.99
2019-01-24T01:30:28.604Z,99.99
2019-01-24T01:31:38.668Z,99.99
2019-01-24T01:32:48.701Z,99.99
2019-01-24T01:33:58.737Z,99.99
2019-01-24T01:35:08.524Z,99.99
2019-01-24T01:36:18.311Z,99.99
2019-01-24T01:37:28.395Z,99.99
2019-01-24T01:38:38.454Z,99.99
2019-01-24T01:39:48.247Z,99.99
2019-01-24T01:40:58.291Z,99.99
2019-01-24T01:42:08.072Z,99.99
2019-01-24T01:43:17.854Z,99.99
2019-01-24T01:44:27.977Z,99.99
2019-01-24T01:45:37.758Z,99.99
2019-01-24T01:46:47.536Z,99.99
2019-01-24T01:47:57.057Z,99.99
2019-01-24T01:49:07.118Z,99.99
2019-01-24T01:50:17.195Z,99.99
2019-01-24T01:51:26.986Z,99.99
2019-01-24T01:52:37.012Z,99.99
2019-01-24T01:53:47.125Z,99.99
2019-01-24T01:54:57.147Z,99.99
2019-01-24T01:56:07.296Z,99.99
2019-01-24T01:57:17.077Z,99.99
2019-01-24T01:58:27.118Z,99.99
2019-01-24T01:59:36.893Z,99.99
2019-01-24T02:00:46.934Z,99.99
2019-01-24T02:01:56.978Z,99.99
2019-01-24T02:03:07.120Z,99.99
2019-01-24T02:04:17.165Z,99.99
2019-01-24T02:05:27.203Z,99.99
2019-01-24T02:06:37.238Z,99.99
2019-01-24T02:07:47.283Z,99.99
2019-01-24T02:08:56.813Z,99.99
2019-01-24T02:10:06.841Z,99.99
2019-01-24T02:11:16.679Z,99.99
2019-01-24T02:12:26.733Z,99.99
2019-01-24T02:13:36.766Z,99.99
2019-01-24T02:14:46.807Z,99.99
2019-01-24T02:15:56.864Z,99.99
2019-01-24T02:17:06.929Z,99.99
2019-01-24T02:18:16.971Z,99.99
2019-01-24T02:19:27.023Z,99.99
2019-01-24T02:20:37.079Z,99.99
2019-01-24T02:21:47.109Z,99.99
2019-01-24T02:22:57.179Z,99.99
2019-01-24T02:24:07.216Z,99.99
2019-01-24T02:25:17.267Z,99.99
2019-01-24T02:26:27.304Z,99.99
2019-01-24T02:27:37.344Z,99.99
2019-01-24T02:28:47.210Z,99.99
2019-01-24T02:29:56.994Z,99.99
2019-01-24T02:31:07.046Z,99.99
2019-01-24T02:32:17.077Z,99.99
2019-01-24T02:33:27.130Z,99.99
2019-01-24T02:34:36.919Z,99.99
2019-01-24T02:35:52.297Z,99.99
2019-01-24T02:37:02.339Z,99.99
2019-01-24T02:38:12.117Z,99.99
2019-01-24T02:39:22.170Z,99.99
2019-01-24T02:40:32.212Z,99.99
2019-01-24T02:41:42.260Z,99.99
2019-01-24T02:42:51.806Z,99.99
2019-01-24T02:44:01.859Z,99.99
2019-01-24T02:45:11.895Z,99.99
2019-01-24T02:46:22.028Z,99.99
2019-01-24T02:47:31.805Z,99.99
2019-01-24T02:48:41.595Z,99.99
2019-01-24T02:49:51.670Z,99.99
2019-01-24T02:51:01.214Z,99.99
2019-01-24T02:52:11.327Z,99.99
2019-01-24T02:53:21.384Z,99.99
2019-01-24T02:54:30.919Z,99.99
2019-01-24T02:55:40.452Z,99.99
2019-01-24T02:56:50.496Z,99.99
2019-01-24T02:58:00.279Z,99.99
2019-01-24T02:59:10.334Z,99.99
2019-01-24T03:00:20.427Z,99.99
2019-01-24T03:01:30.468Z,99.99
2019-01-24T03:02:40.017Z,99.99
2019-01-24T03:35:03.896Z,93.75
2019-01-24T03:36:13.884Z,94.03
2019-01-24T03:37:23.707Z,94.98
2019-01-24T03:38:33.746Z,96.11
2019-01-24T03:39:43.794Z,96.96
2019-01-24T03:40:53.878Z,97.34
2019-01-24T03:42:06.154Z,98
2019-01-24T03:43:16.184Z,98.47
2019-01-24T03:44:26.215Z,99.52
2019-01-24T03:45:36.008Z,99.89
2019-01-24T03:46:45.776Z,99.99
2019-01-24T03:47:55.844Z,99.99
2019-01-24T03:49:05.648Z,99.99
2019-01-24T03:50:17.025Z,99.99
2019-01-24T03:51:27.068Z,99.99
2019-01-24T03:52:36.873Z,99.99
2019-01-24T03:53:46.910Z,99.99
2019-01-24T03:54:56.944Z,99.99
2019-01-24T03:56:06.729Z,99.99
2019-01-24T03:57:16.757Z,99.99
2019-01-24T03:58:26.791Z,99.99
2019-01-24T03:59:36.885Z,99.99
2019-01-24T04:00:46.930Z,99.99
2019-01-24T04:01:56.983Z,99.99
2019-01-24T04:03:06.505Z,99.99
2019-01-24T04:04:15.780Z,99.99
2019-01-24T04:05:25.578Z,99.99
2019-01-24T04:06:35.637Z,99.99
2019-01-24T04:07:45.699Z,99.99
2019-01-24T04:08:55.828Z,99.99
2019-01-24T04:10:08.476Z,99.99
2019-01-24T04:11:18.529Z,99.99
2019-01-24T04:12:28.574Z,99.99
2019-01-24T04:13:38.378Z,99.99
2019-01-24T04:14:48.163Z,99.99
2019-01-24T04:15:57.999Z,99.99
2019-01-24T04:17:07.768Z,99.99
2019-01-24T04:18:17.566Z,99.99
2019-01-24T04:19:27.617Z,99.99
2019-01-24T04:20:37.689Z,99.99
2019-01-24T04:21:47.726Z,99.99
2019-01-24T04:22:57.510Z,99.99
2019-01-24T04:24:07.583Z,99.99
2019-01-24T04:25:17.621Z,99.99
2019-01-24T04:26:27.657Z,99.99
2019-01-24T04:27:37.543Z,99.99
2019-01-24T04:28:47.630Z,99.99
2019-01-24T04:29:57.683Z,99.99
2019-01-24T04:31:11.082Z,99.99
2019-01-24T04:32:21.142Z,99.99
2019-01-24T04:33:31.194Z,99.99
2019-01-24T04:34:40.971Z,99.99
2019-01-24T04:35:50.768Z,99.99
2019-01-24T04:37:01.525Z,99.99
2019-01-24T04:38:11.586Z,99.99
2019-01-24T04:39:21.482Z,99.99
2019-01-24T04:40:31.267Z,99.99
2019-01-24T04:41:41.320Z,99.99
2019-01-24T04:42:51.105Z,99.99
2019-01-24T04:44:00.893Z,99.99
2019-01-24T04:45:11.063Z,99.99
2019-01-24T04:46:21.111Z,99.99
2019-01-24T04:47:31.183Z,99.99
2019-01-24T04:48:41.217Z,99.99
2019-01-24T04:49:51.278Z,99.99
2019-01-24T04:51:01.318Z,99.99
2019-01-24T04:52:11.115Z,99.99
2019-01-24T04:53:20.898Z,99.99
2019-01-24T04:54:30.685Z,99.99
2019-01-24T04:55:40.732Z,99.99
2019-01-24T04:56:50.798Z,99.99
2019-01-24T04:58:03.095Z,99.99
2019-01-24T04:59:12.926Z,99.99
2019-01-24T05:00:22.917Z,99.99
2019-01-24T05:01:33.013Z,99.99
2019-01-24T05:02:43.052Z,99.99
2019-01-24T05:03:53.103Z,99.99
2019-01-24T05:05:03.184Z,99.99
2019-01-24T05:06:13.221Z,99.99
2019-01-24T05:07:23.277Z,99.99
2019-01-24T05:08:33.329Z,99.99
2019-01-24T05:09:43.363Z,99.99
2019-01-24T05:10:53.452Z,99.99
2019-01-24T05:12:03.511Z,99.99
2019-01-24T05:13:13.590Z,99.99
2019-01-24T05:14:23.683Z,99.99
2019-01-24T05:15:33.498Z,99.99
2019-01-24T05:16:43.304Z,99.99
2019-01-24T05:17:53.147Z,99.99
2019-01-24T05:19:03.484Z,99.99
2019-01-24T05:20:13.313Z,99.99
2019-01-24T05:21:23.144Z,99.99
2019-01-24T05:22:33.189Z,99.99
2019-01-24T05:23:43.232Z,99.99
2019-01-24T05:24:53.288Z,99.99
2019-01-24T05:26:03.841Z,99.99
2019-01-24T05:27:13.880Z,99.99
2019-01-24T05:28:23.670Z,99.99
2019-01-24T05:29:33.732Z,99.99
2019-01-24T05:30:43.530Z,99.99
2019-01-24T05:31:53.632Z,99.99
2019-01-24T05:33:05.366Z,99.99
2019-01-24T05:34:15.428Z,99.99
2019-01-24T05:35:25.483Z,99.99
2019-01-24T05:36:42.324Z,99.99
2019-01-24T05:37:52.411Z,99.99
2019-01-24T05:39:02.188Z,99.99
2019-01-24T05:40:11.975Z,99.99
2019-01-24T05:41:22.106Z,99.99
2019-01-24T05:42:32.179Z,99.99
2019-01-24T05:43:42.335Z,99.99
2019-01-24T05:44:52.380Z,99.99
2019-01-24T05:46:02.189Z,99.99
2019-01-24T05:47:12.221Z,99.99
2019-01-24T05:48:22.276Z,99.99
2019-01-24T05:49:32.404Z,99.99
2019-01-24T05:50:42.450Z,99.99
2019-01-24T05:51:52.276Z,99.99
2019-01-24T05:53:02.339Z,99.99
2019-01-24T05:54:12.409Z,99.99
2019-01-24T05:55:22.257Z,99.99
2019-01-24T05:56:32.329Z,99.99
2019-01-24T05:57:42.144Z,99.99
2019-01-24T05:58:52.207Z,99.99
2019-01-24T06:00:02.099Z,99.99
2019-01-24T06:01:12.140Z,99.99
2019-01-24T06:02:22.174Z,99.99
2019-01-24T06:03:32.048Z,99.99
2019-01-24T06:04:42.117Z,99.99
2019-01-24T06:05:52.163Z,99.99
2019-01-24T06:07:03.731Z,99.99
2019-01-24T06:08:13.782Z,99.99
2019-01-24T06:09:23.683Z,99.99
2019-01-24T06:10:33.515Z,99.99
2019-01-24T06:11:43.297Z,99.99
2019-01-24T06:12:53.390Z,99.99
2019-01-24T06:14:03.453Z,99.99
2019-01-24T06:15:13.496Z,99.99
2019-01-24T06:16:23.544Z,99.99
2019-01-24T06:17:33.327Z,99.99
2019-01-24T06:18:43.366Z,99.99
2019-01-24T06:19:53.430Z,99.99
2019-01-24T06:21:03.502Z,99.99
2019-01-24T06:22:13.369Z,99.99
2019-01-24T06:23:23.188Z,99.99
2019-01-24T06:24:33.043Z,99.99
2019-01-24T06:25:43.084Z,99.99
2019-01-24T06:26:52.882Z,99.99
2019-01-24T06:28:03.535Z,99.99
2019-01-24T06:29:13.313Z,99.99
2019-01-24T06:30:23.609Z,99.99
2019-01-24T06:31:33.492Z,99.99
2019-01-24T06:32:43.531Z,99.99
2019-01-24T06:33:53.588Z,99.99
2019-01-24T06:35:03.646Z,99.99
2019-01-24T06:36:13.729Z,99.99
2019-01-24T06:37:23.783Z,99.99
2019-01-24T06:38:33.610Z,99.99
2019-01-24T06:39:43.657Z,99.99
2019-01-24T06:40:53.694Z,99.99
2019-01-24T06:42:04.880Z,99.99
2019-01-24T06:43:14.909Z,99.99
2019-01-24T06:44:24.686Z,99.99
2019-01-24T06:45:34.722Z,99.99
2019-01-24T06:46:44.761Z,99.99
2019-01-24T06:47:54.791Z,99.99
2019-01-24T06:49:04.833Z,99.99
2019-01-24T06:50:14.362Z,99.99
2019-01-24T06:51:24.415Z,99.99
2019-01-24T06:52:34.202Z,99.99
2019-01-24T06:53:44.026Z,99.99
2019-01-24T06:54:53.819Z,99.99
2019-01-24T06:56:03.385Z,99.99
2019-01-24T06:57:13.416Z,99.99
2019-01-24T06:58:23.460Z,99.99
2019-01-24T06:59:33.502Z,99.99
2019-01-24T07:00:44.128Z,99.99
2019-01-24T07:01:54.171Z,99.99
2019-01-24T07:03:04.212Z,99.99
2019-01-24T07:04:14.242Z,99.99
2019-01-24T07:05:24.297Z,99.99
2019-01-24T07:06:34.347Z,99.99
2019-01-24T07:07:44.374Z,99.99
2019-01-24T07:08:53.647Z,99.99
2019-01-24T07:10:03.687Z,99.99
2019-01-24T07:11:13.464Z,99.99
2019-01-24T07:12:23.505Z,99.99
2019-01-24T07:13:33.576Z,99.99
2019-01-24T07:14:43.098Z,99.99
2019-01-24T07:15:52.615Z,99.99
2019-01-24T07:17:02.651Z,99.99
2019-01-24T07:18:12.438Z,99.99
2019-01-24T07:19:22.221Z,99.99
2019-01-24T07:20:32.056Z,99.99
2019-01-24T07:21:42.103Z,99.99
2019-01-24T07:22:52.152Z,99.99
2019-01-24T07:24:02.201Z,99.99
2019-01-24T07:25:11.974Z,99.99
2019-01-24T07:26:21.755Z,99.99
2019-01-24T07:27:31.796Z,99.99
2019-01-24T07:28:41.889Z,99.99
2019-01-24T07:29:51.944Z,99.99
2019-01-24T07:31:01.991Z,99.99
2019-01-24T07:32:12.104Z,99.99
2019-01-24T07:33:22.131Z,99.99
2019-01-24T07:34:32.176Z,99.99
2019-01-24T07:35:42.027Z,99.99
2019-01-24T07:36:52.075Z,99.99
2019-01-24T07:38:02.132Z,99.99
2019-01-24T07:39:11.928Z,99.99
2019-01-24T07:40:21.962Z,99.99
2019-01-24T07:41:32.009Z,99.99
2019-01-24T07:42:41.803Z,99.99
2019-01-24T07:43:51.747Z,99.99
2019-01-24T07:45:01.807Z,99.99
2019-01-24T07:46:11.643Z,99.99
2019-01-24T07:47:21.688Z,99.99
2019-01-24T07:48:31.734Z,99.99
2019-01-24T07:49:41.779Z,99.99
2019-01-24T07:50:51.816Z,99.99
2019-01-24T07:52:01.859Z,99.85
2019-01-24T07:53:11.937Z,99.76
2019-01-24T07:54:21.996Z,99.48
2019-01-24T07:55:32.045Z,99.99
2019-01-24T07:56:42.088Z,99.76
2019-01-24T07:57:52.126Z,99.85
2019-01-24T07:59:03.440Z,99.99
2019-01-24T08:00:13.782Z,99.76
2019-01-24T08:01:25.209Z,99.85
2019-01-24T08:02:35.024Z,99.85
2019-01-24T08:03:45.061Z,99.99
2019-01-24T08:04:55.091Z,99.48
2019-01-24T08:06:11.403Z,99.76
2019-01-24T08:07:21.545Z,99.76
2019-01-24T08:08:31.072Z,99.66
2019-01-24T08:09:40.892Z,99.76
2019-01-24T08:10:50.432Z,99.85
2019-01-24T08:12:00.301Z,99.66
2019-01-24T08:13:10.362Z,99.76
2019-01-24T08:14:20.150Z,99.85
2019-01-24T08:15:29.943Z,99.85
2019-01-24T08:16:40.044Z,99.76
2019-01-24T08:17:50.081Z,99.57
2019-01-24T08:18:59.881Z,99.85
2019-01-24T08:20:09.664Z,99.66
2019-01-24T08:21:19.690Z,99.76
2019-01-24T08:22:29.227Z,99.85
2019-01-24T08:23:39.264Z,99.85
2019-01-24T08:24:49.288Z,99.66
2019-01-24T08:25:59.322Z,99.66
2019-01-24T08:27:09.223Z,99.38
2019-01-24T08:28:19.266Z,99.99
2019-01-24T08:29:29.303Z,99.95
2019-01-24T08:30:39.114Z,99.85
2019-01-24T08:31:49.176Z,99.99
2019-01-24T08:32:59.287Z,99.76
2019-01-24T08:34:09.392Z,99.57
2019-01-24T08:35:19.436Z,99.66
2019-01-24T08:36:29.482Z,99.66
2019-01-24T08:37:39.547Z,99.76
2019-01-24T08:38:49.571Z,99.66
2019-01-24T08:39:59.604Z,99.76
2019-01-24T08:41:09.793Z,99.76
2019-01-24T08:42:19.846Z,99.66
2019-01-24T08:43:29.623Z,99.76
2019-01-24T08:44:39.673Z,99.85
2019-01-24T08:45:49.531Z,99.57
2019-01-24T08:46:59.329Z,99.48
2019-01-24T08:48:10.401Z,99.76
2019-01-24T08:49:20.197Z,99.76
2019-01-24T08:50:29.978Z,99.76
2019-01-24T08:51:40.004Z,99.85
2019-01-24T08:52:49.274Z,99.38
2019-01-24T08:53:59.313Z,99.38
2019-01-24T08:55:09.092Z,99.48
2019-01-24T08:56:19.147Z,99.1
2019-01-24T08:57:28.987Z,99.19
2019-01-24T08:58:38.787Z,99.66
2019-01-24T08:59:48.818Z,99.66
2019-01-24T09:00:58.884Z,99.95
2019-01-24T09:02:08.955Z,99.38
2019-01-24T09:03:18.814Z,99.38
2019-01-24T09:04:28.872Z,99.99
2019-01-24T09:05:38.902Z,99.85
2019-01-24T09:06:48.694Z,99.95
2019-01-24T09:07:58.736Z,99.85
2019-01-24T09:09:10.927Z,99.95
2019-01-24T09:10:20.720Z,99.29
2019-01-24T09:11:30.792Z,99.38
2019-01-24T09:12:40.588Z,99.38
2019-01-24T09:13:50.729Z,99.19
2019-01-24T09:15:01.069Z,99.01
2019-01-24T09:16:11.152Z,99.19
2019-01-24T09:17:21.203Z,99.05
2019-01-24T09:18:31.282Z,98.96
2019-01-24T09:19:41.334Z,98.96
2019-01-24T09:20:51.474Z,98.86
2019-01-24T09:22:02.239Z,99.05
2019-01-24T09:23:12.315Z,98.96
2019-01-24T09:24:22.633Z,98.86
2019-01-24T09:25:32.695Z,98.77
2019-01-24T09:26:42.875Z,98.49
2019-01-24T09:27:52.473Z,98.77
2019-01-24T09:29:03.851Z,98.49
2019-01-24T09:30:13.903Z,98.96
2019-01-24T09:31:23.699Z,98.11
2019-01-24T09:32:33.810Z,98.25
2019-01-24T09:33:43.913Z,98.44
2019-01-24T09:34:53.981Z,98.54
2019-01-24T09:36:04.080Z,98.44
2019-01-24T09:37:14.136Z,98.54
2019-01-24T09:38:24.179Z,98.25
2019-01-24T09:39:34.215Z,98.35
2019-01-24T09:40:44.260Z,98.16
2019-01-24T09:41:54.338Z,98.68
2019-01-24T09:43:06.029Z,98.49
2019-01-24T09:44:16.132Z,98.58
2019-01-24T09:45:26.180Z,99.24
2019-01-24T09:46:36.249Z,98.77
2019-01-24T09:47:46.308Z,98.86
2019-01-24T09:48:56.394Z,99.05
2019-01-24T09:50:08.164Z,99.05
2019-01-24T09:51:18.249Z,99.05
2019-01-24T09:52:28.082Z,98.77
2019-01-24T09:53:38.175Z,99.05
2019-01-24T09:54:47.731Z,98.77
2019-01-24T09:55:57.890Z,99.43
2019-01-24T09:57:07.433Z,99.24
2019-01-24T09:58:17.541Z,99.33
2019-01-24T09:59:27.388Z,99.99
2019-01-24T10:00:37.457Z,99.81
2019-01-24T10:01:47.051Z,99.57
2019-01-24T10:02:57.101Z,99.76
2019-01-24T10:04:07.152Z,99.76
2019-01-24T10:05:17.408Z,99.66
2019-01-24T10:06:27.229Z,99.57
2019-01-24T10:07:43.858Z,99.85
2019-01-24T10:08:53.402Z,99.66
2019-01-24T10:10:06.467Z,99.38
2019-01-24T10:11:16.514Z,99.38
2019-01-24T10:12:31.181Z,99.1
2019-01-24T10:13:41.318Z,98.91
2019-01-24T10:14:51.360Z,98.86
2019-01-24T10:16:01.168Z,98.3
2019-01-24T10:17:11.214Z,98.3
2019-01-24T10:18:24.196Z,98.39
2019-01-24T10:19:34.058Z,98.3
2019-01-24T10:20:43.605Z,98.39
2019-01-24T10:21:53.710Z,98.39
2019-01-24T10:23:03.783Z,98.86
2019-01-24T10:24:13.845Z,98.68
2019-01-24T10:25:23.996Z,98.77
2019-01-24T10:26:34.072Z,98.49
2019-01-24T10:27:44.380Z,98.86
2019-01-24T10:28:54.453Z,98.77
2019-01-24T10:30:06.297Z,98.3
2019-01-24T10:31:16.445Z,98.11
2019-01-24T10:32:26.502Z,98.11
2019-01-24T10:33:36.834Z,98.39
2019-01-24T10:34:46.891Z,98.39
2019-01-24T10:35:56.693Z,98.58
2019-01-24T10:37:06.748Z,98.49
2019-01-24T10:38:16.541Z,98.49
2019-01-24T10:39:26.615Z,98.11
2019-01-24T10:40:36.492Z,98.2
2019-01-24T10:41:46.617Z,98.01
2019-01-24T10:42:56.726Z,98.01
2019-01-24T10:44:06.791Z,98.11
2019-01-24T10:45:16.891Z,98.11
2019-01-24T10:46:26.941Z,98.39
2019-01-24T10:47:37.001Z,98.3
2019-01-24T10:48:47.157Z,98.68
2019-01-24T10:49:57.214Z,98.77
2019-01-24T10:51:07.018Z,98.11
2019-01-24T10:52:17.070Z,98.11
2019-01-24T10:53:27.126Z,98.01
2019-01-24T10:54:37.175Z,98.2
2019-01-24T10:55:47.935Z,98.11
2019-01-24T10:56:58.094Z,98.58
2019-01-24T10:58:08.297Z,98.39
2019-01-24T10:59:18.361Z,98.3
2019-01-24T11:00:28.409Z,98.39
2019-01-24T11:01:53.133Z,98.11
2019-01-24T11:03:03.187Z,98.3
2019-01-24T11:04:12.974Z,98.01
2019-01-24T11:05:23.041Z,98.2
2019-01-24T11:06:33.096Z,98.39
2019-01-24T11:07:43.825Z,98.2
2019-01-24T11:08:53.872Z,98.2
2019-01-24T11:10:06.539Z,98.3
2019-01-24T11:11:17.916Z,98.11
2019-01-24T11:12:28.016Z,98.3
2019-01-24T11:13:38.087Z,98.3
2019-01-24T11:14:47.674Z,98.35
2019-01-24T11:15:57.738Z,98.54
2019-01-24T11:17:08.763Z,97.87
2019-01-24T11:18:18.815Z,98.35
2019-01-24T11:19:28.928Z,98.25
2019-01-24T11:20:38.757Z,97.97
2019-01-24T11:21:49.048Z,97.87
2019-01-24T11:22:59.157Z,98.06
2019-01-24T11:24:09.021Z,97.87
2019-01-24T11:25:19.080Z,98.35
2019-01-24T11:26:29.163Z,98.25
2019-01-24T11:27:39.289Z,98.25
2019-01-24T11:28:49.101Z,98.25
2019-01-24T11:29:58.919Z,98.54
2019-01-24T11:31:10.151Z,98.72
2019-01-24T11:32:20.206Z,98.91
2019-01-24T11:33:30.339Z,98.77
2019-01-24T11:34:40.387Z,98.11
2019-01-24T11:35:50.212Z,98.11
2019-01-24T11:37:01.799Z,98.58
2019-01-24T11:38:11.673Z,98.54
2019-01-24T11:39:21.462Z,98.63
2019-01-24T11:40:31.514Z,98.72
2019-01-24T11:41:41.582Z,98.82
2019-01-24T11:42:51.632Z,99.01
2019-01-24T11:44:01.716Z,98.82
2019-01-24T11:45:11.769Z,98.54
2019-01-24T11:46:21.859Z,98.91
2019-01-24T11:47:31.902Z,98.82
2019-01-24T11:48:41.705Z,98.54
2019-01-24T11:49:51.549Z,98.35
2019-01-24T11:51:01.604Z,98.06
2019-01-24T11:52:26.279Z,98.35
2019-01-24T11:53:36.093Z,98.63
2019-01-24T11:54:46.144Z,98.44
2019-01-24T11:55:55.925Z,98.25
2019-01-24T11:57:06.537Z,98.54
2019-01-24T11:58:16.441Z,98.54
2019-01-24T11:59:26.247Z,98.44
2019-01-24T12:00:36.351Z,98.72
2019-01-24T12:01:46.431Z,98.72
2019-01-24T12:02:56.775Z,97.78
2019-01-24T12:04:07.164Z,98.06
2019-01-24T12:05:17.217Z,98.44
2019-01-24T12:06:27.038Z,98.16
2019-01-24T12:07:36.970Z,98.25
2019-01-24T12:08:47.065Z,97.97
2019-01-24T12:09:56.886Z,98.06
2019-01-24T12:11:06.967Z,97.87
2019-01-24T12:12:17.034Z,98.25
2019-01-24T12:13:27.161Z,98.82
2019-01-24T12:14:37.666Z,98.54
2019-01-24T12:15:48.054Z,98.25
2019-01-24T12:16:58.216Z,98.25
2019-01-24T12:18:10.160Z,98.16
2019-01-24T12:19:19.967Z,98.54
2019-01-24T12:20:30.050Z,98.63
2019-01-24T12:21:39.838Z,98.25
2019-01-24T12:22:49.943Z,98.35
2019-01-24T12:24:00.001Z,98.35
2019-01-24T12:25:10.035Z,98.16
2019-01-24T12:26:20.080Z,98.35
2019-01-24T12:27:30.118Z,98.35
2019-01-24T12:28:39.951Z,98.16
2019-01-24T12:29:50.029Z,98.16
2019-01-24T12:31:00.058Z,98.54
2019-01-24T12:32:10.177Z,98.16
2019-01-24T12:33:20.045Z,98.25
2019-01-24T12:34:30.104Z,98.54
2019-01-24T12:35:40.150Z,98.82
2019-01-24T12:36:50.212Z,98.91
2019-01-24T12:38:00.370Z,98.16
2019-01-24T12:39:10.431Z,98.35
2019-01-24T12:40:20.221Z,98.25
2019-01-24T12:41:30.041Z,98.35
2019-01-24T12:42:40.106Z,98.16
2019-01-24T12:43:50.313Z,98.35
2019-01-24T12:45:01.465Z,98.54
2019-01-24T12:46:11.501Z,98.91
2019-01-24T12:47:21.529Z,99.1
2019-01-24T12:48:31.582Z,98.82
2019-01-24T12:49:41.713Z,99.01
2019-01-24T12:50:51.750Z,99.39
2019-01-24T12:52:01.794Z,99.01
2019-01-24T12:53:11.838Z,99.2
2019-01-24T12:54:21.882Z,99.01
2019-01-24T12:55:31.714Z,99.29
2019-01-24T12:56:41.776Z,99.1
2019-01-24T12:57:51.815Z,99.01
2019-01-24T12:59:01.867Z,98.72
2019-01-24T13:00:12.059Z,98.91
2019-01-24T13:01:22.263Z,98.91
2019-01-24T13:02:32.300Z,99.05
2019-01-24T13:03:42.438Z,98.86
2019-01-24T13:04:52.484Z,99.43
2019-01-24T13:06:04.828Z,99.39
2019-01-24T13:07:20.942Z,98.77
2019-01-24T13:08:31.009Z,99.05
2019-01-24T13:09:41.096Z,99.05
2019-01-24T13:10:51.214Z,98.77
2019-01-24T13:12:02.065Z,98.86
2019-01-24T13:13:12.142Z,99.33
2019-01-24T13:14:22.179Z,99.43
2019-01-24T13:15:32.706Z,99.15
2019-01-24T13:16:43.260Z,99.24
2019-01-24T13:17:53.376Z,99.33
2019-01-24T13:19:03.276Z,99.33
2019-01-24T13:20:13.095Z,99.24
2019-01-24T13:21:22.946Z,99.9
2019-01-24T13:22:32.999Z,99.85
2019-01-24T13:23:43.080Z,99.85
2019-01-24T13:24:53.445Z,99.76
2019-01-24T13:26:05.634Z,99.85
2019-01-24T13:27:15.996Z,99.66
2019-01-24T13:28:26.082Z,99.66
2019-01-24T13:29:36.155Z,99.85
2019-01-24T13:30:46.216Z,99.76
2019-01-24T13:31:56.031Z,99.66
2019-01-24T13:33:07.085Z,99.85
2019-01-24T13:34:18.108Z,99.76
2019-01-24T13:35:27.934Z,99.76
2019-01-24T13:36:38.049Z,99.38
2019-01-24T13:37:48.146Z,99.48
2019-01-24T13:38:57.965Z,99.99
2019-01-24T13:40:08.146Z,99.99
2019-01-24T13:41:18.249Z,99.76
2019-01-24T13:42:28.082Z,99.99
2019-01-24T13:43:37.870Z,99.99
2019-01-24T13:44:47.666Z,99.85
2019-01-24T13:45:57.663Z,99.99
2019-01-24T13:47:07.510Z,99.99
2019-01-24T13:48:17.315Z,99.95
2019-01-24T13:49:27.362Z,99.85
2019-01-24T13:50:37.163Z,99.48
2019-01-24T13:51:46.983Z,99.57
2019-01-24T13:52:57.057Z,99.76
2019-01-24T13:54:07.228Z,99.99
2019-01-24T13:55:16.544Z,99.99
2019-01-24T13:56:26.584Z,99.99
2019-01-24T13:57:36.159Z,99.99
2019-01-24T13:58:46.526Z,99.99
2019-01-24T13:59:56.814Z,99.85
2019-01-24T14:01:09.435Z,99.99
2019-01-24T14:02:19.238Z,99.99
2019-01-24T14:03:29.284Z,99.99
2019-01-24T14:04:45.125Z,99.99
2019-01-24T14:05:55.198Z,99.99
2019-01-24T14:07:05.360Z,99.99
2019-01-24T14:08:15.397Z,99.99
2019-01-24T14:09:25.465Z,99.99
2019-01-24T14:10:35.582Z,99.99
2019-01-24T14:11:45.661Z,99.99
2019-01-24T14:12:55.954Z,99.99
2019-01-24T14:14:06.045Z,99.99
2019-01-24T14:15:15.837Z,99.99
2019-01-24T14:16:25.942Z,99.99
2019-01-24T14:17:36.014Z,99.99
2019-01-24T14:18:46.082Z,99.99
2019-01-24T14:19:55.885Z,99.99
2019-01-24T14:21:05.942Z,99.99
2019-01-24T14:22:16.095Z,99.99
2019-01-24T14:23:26.182Z,99.99
2019-01-24T14:24:36.231Z,99.99
2019-01-24T14:25:46.289Z,99.99
2019-01-24T14:26:56.333Z,99.99
2019-01-24T14:28:06.196Z,99.99
2019-01-24T14:29:16.247Z,99.99
2019-01-24T14:30:26.362Z,99.99
2019-01-24T14:31:36.435Z,99.99
2019-01-24T14:32:46.497Z,99.99
2019-01-24T14:33:56.603Z,99.99
2019-01-24T14:35:06.651Z,99.99
2019-01-24T14:36:16.550Z,99.99
2019-01-24T14:37:32.664Z,99.99
2019-01-24T14:38:47.316Z,99.99
2019-01-24T14:39:57.558Z,99.99
2019-01-24T14:41:08.643Z,99.99
2019-01-24T14:42:18.447Z,99.99
2019-01-24T14:43:28.506Z,99.99
2019-01-24T14:44:38.402Z,99.99
2019-01-24T14:45:48.466Z,99.99
2019-01-24T14:46:58.529Z,99.99
2019-01-24T14:48:08.642Z,99.99
2019-01-24T14:49:19.701Z,99.99
2019-01-24T14:50:29.712Z,99.99
2019-01-24T14:51:39.509Z,99.99
2019-01-24T14:52:49.565Z,99.99
2019-01-24T14:53:59.639Z,99.99
2019-01-24T14:55:09.693Z,99.9
2019-01-24T14:56:19.507Z,99.99
2019-01-24T14:57:29.581Z,99.99
2019-01-24T14:58:39.389Z,99.99
2019-01-24T14:59:49.436Z,99.99
2019-01-24T15:00:59.759Z,99.99
2019-01-24T15:02:09.871Z,99.99
2019-01-24T15:03:19.943Z,99.99
2019-01-24T15:04:30.011Z,99.99
2019-01-24T15:05:40.075Z,99.99
2019-01-24T15:06:50.142Z,99.99
2019-01-24T15:08:03.307Z,99.99
2019-01-24T15:09:13.160Z,99.99
2019-01-24T15:10:23.009Z,99.99
2019-01-24T15:11:33.337Z,99.99
2019-01-24T15:12:43.227Z,99.99
2019-01-24T15:13:53.030Z,99.99
2019-01-24T15:15:03.190Z,99.99
2019-01-24T15:16:13.328Z,99.99
2019-01-24T15:17:23.148Z,99.99
2019-01-24T15:18:33.452Z,99.99
2019-01-24T15:19:43.736Z,99.99
2019-01-24T15:20:53.626Z,99.99
2019-01-24T15:22:04.132Z,99.99
2019-01-24T15:23:14.263Z,99.99
2019-01-24T15:24:24.323Z,99.99
2019-01-24T15:25:34.413Z,99.99
2019-01-24T15:26:44.526Z,99.99
2019-01-24T15:27:54.600Z,99.99
2019-01-24T15:29:05.537Z,99.99
2019-01-24T15:30:15.353Z,99.99
2019-01-24T15:31:25.457Z,99.99
2019-01-24T15:32:35.564Z,99.99
2019-01-24T15:33:45.630Z,99.99
2019-01-24T15:34:55.460Z,99.99
2019-01-24T15:36:07.968Z,99.99